Time;durP1;ratioP1;P1;durP2;ratioP2;P2;SDS_P1;SDS_P2;PMS_P1;PMS_P2;Temp;Humidity;BMP_temperature;BMP_pressure;BME280_temperature;BME280_humidity;BME280_pressure;Samples;Min_cycle;Max_cycle;Signal;HPM_P1;HPM_P2
2021/05/05 00:00:07;;;;;;;3.60;1.83;;;12.60;63.80;;;;;;5032753;28;20060;-63
2021/05/05 00:02:37;;;;;;;1.98;1.70;;;12.60;63.80;;;;;;5033161;28;20034;-63
2021/05/05 00:05:08;;;;;;;2.15;1.95;;;12.60;63.80;;;;;;5035524;28;20038;-63
2021/05/05 00:07:34;;;;;;;2.08;1.60;;;12.60;63.60;;;;;;5035016;28;20037;-63
2021/05/05 00:09:59;;;;;;;2.58;1.70;;;12.60;63.50;;;;;;5034087;28;20087;-63
2021/05/05 00:12:27;;;;;;;2.05;1.90;;;12.60;63.50;;;;;;5030390;28;20037;-63
2021/05/05 00:15:00;;;;;;;3.70;1.85;;;12.60;63.40;;;;;;5037128;28;20067;-63
2021/05/05 00:17:30;;;;;;;1.60;1.50;;;12.60;63.40;;;;;;5029396;28;20049;-63
2021/05/05 00:19:58;;;;;;;1.80;1.58;;;12.60;63.60;;;;;;5030099;28;20033;-63
2021/05/05 00:22:24;;;;;;;2.10;1.88;;;12.60;63.60;;;;;;5033072;28;20485;-63
2021/05/05 00:24:56;;;;;;;2.10;1.90;;;12.60;63.90;;;;;;5026484;28;20091;-63
2021/05/05 00:27:27;;;;;;;2.55;1.73;;;12.60;64.10;;;;;;5032349;28;21537;-63
2021/05/05 00:29:54;;;;;;;2.38;1.52;;;12.60;64.00;;;;;;5031932;28;20029;-64
2021/05/05 00:32:25;;;;;;;1.92;1.80;;;12.60;64.10;;;;;;5031683;28;20179;-63
2021/05/05 00:34:53;;;;;;;4.20;1.70;;;12.50;65.10;;;;;;5033251;28;20564;-63
2021/05/05 00:37:26;;;;;;;2.20;1.83;;;12.50;64.80;;;;;;5032211;28;20052;-63
2021/05/05 00:39:56;;;;;;;1.98;1.83;;;12.50;65.20;;;;;;5033664;28;20034;-63
2021/05/05 00:42:22;;;;;;;2.00;1.90;;;12.50;65.20;;;;;;5032092;28;20033;-65
2021/05/05 00:44:48;;;;;;;2.40;2.00;;;12.40;65.20;;;;;;5035694;28;20041;-64
2021/05/05 00:47:18;;;;;;;2.40;2.20;;;12.40;65.50;;;;;;5030053;28;20053;-63
2021/05/05 00:49:51;;;;;;;2.17;1.95;;;12.30;65.70;;;;;;5041255;28;20471;-64
2021/05/05 00:52:19;;;;;;;2.55;2.35;;;12.30;66.00;;;;;;5032410;28;20025;-63
2021/05/05 00:54:45;;;;;;;2.80;2.17;;;12.30;66.20;;;;;;5032757;28;20041;-63
2021/05/05 00:57:16;;;;;;;2.75;2.10;;;12.20;66.20;;;;;;5031815;28;20052;-63
2021/05/05 00:59:44;;;;;;;2.42;2.22;;;12.20;66.60;;;;;;5036454;28;20397;-64
2021/05/05 01:02:12;;;;;;;2.65;2.30;;;12.20;66.60;;;;;;5028614;28;20041;-63
2021/05/05 01:04:45;;;;;;;3.45;2.22;;;12.10;66.90;;;;;;5030570;28;20037;-63
2021/05/05 01:07:11;;;;;;;2.20;2.00;;;12.10;67.40;;;;;;5036298;28;20033;-63
2021/05/05 01:09:42;;;;;;;3.60;2.20;;;12.10;67.30;;;;;;5036229;28;20175;-63
2021/05/05 01:12:10;;;;;;;2.58;2.38;;;12.00;67.80;;;;;;5034205;28;20061;-63
2021/05/05 01:14:36;;;;;;;2.92;2.45;;;12.00;67.60;;;;;;5029931;28;20156;-63
2021/05/05 01:17:07;;;;;;;2.75;2.55;;;12.00;67.90;;;;;;5032294;28;20641;-63
2021/05/05 01:19:35;;;;;;;3.00;2.22;;;12.00;67.80;;;;;;5027714;28;20036;-63
2021/05/05 01:22:02;;;;;;;3.15;2.65;;;11.90;68.00;;;;;;5035816;28;20029;-63
2021/05/05 01:24:35;;;;;;;3.47;2.47;;;11.90;68.30;;;;;;5034498;28;20123;-63
2021/05/05 01:27:09;;;;;;;3.10;2.60;;;11.90;69.10;;;;;;5031956;28;20405;-64
2021/05/05 01:29:36;;;;;;;2.47;2.20;;;11.90;69.30;;;;;;5033264;28;20072;-63
2021/05/05 01:32:05;;;;;;;2.60;2.40;;;11.90;68.90;;;;;;5030127;28;20307;-62
2021/05/05 01:34:32;;;;;;;2.60;2.40;;;11.80;69.00;;;;;;5030444;28;20781;-64
2021/05/05 01:37:03;;;;;;;2.58;2.38;;;11.80;69.30;;;;;;5035441;28;20040;-60
2021/05/05 01:39:34;;;;;;;2.90;2.70;;;11.80;69.20;;;;;;5032097;28;20029;-63
2021/05/05 01:42:07;;;;;;;2.80;2.60;;;11.80;69.90;;;;;;5029262;28;20657;-63
2021/05/05 01:44:41;;;;;;;2.50;2.30;;;11.80;69.70;;;;;;5033040;28;20037;-63
2021/05/05 01:47:14;;;;;;;2.60;2.40;;;11.80;69.80;;;;;;5034095;28;20040;-64
2021/05/05 01:49:47;;;;;;;2.80;2.40;;;11.80;69.90;;;;;;5030089;28;20400;-63
2021/05/05 01:52:16;;;;;;;2.72;2.35;;;11.80;70.40;;;;;;5034965;28;20121;-64
2021/05/05 01:54:45;;;;;;;2.58;2.38;;;11.80;70.10;;;;;;5031954;28;20029;-64
2021/05/05 01:57:26;;;;;;;2.67;2.40;;;11.70;70.20;;;;;;5035752;28;20030;-64
2021/05/05 02:00:00;;;;;;;2.70;2.50;;;11.70;71.10;;;;;;5037764;28;20060;-63
2021/05/05 02:02:32;;;;;;;4.05;2.38;;;11.70;70.30;;;;;;5033147;28;20025;-64
2021/05/05 02:05:05;;;;;;;5.80;3.13;;;11.70;70.40;;;;;;5029035;28;20041;-64
2021/05/05 02:07:31;;;;;;;4.15;2.20;;;11.70;70.80;;;;;;5033612;28;20036;-64
2021/05/05 02:10:01;;;;;;;2.80;2.35;;;11.60;70.50;;;;;;5029210;28;20033;-64
2021/05/05 02:12:30;;;;;;;2.58;2.33;;;11.60;71.10;;;;;;5028979;28;20124;-64
2021/05/05 02:15:02;;;;;;;2.80;2.50;;;11.60;71.30;;;;;;5030851;28;20037;-65
2021/05/05 02:17:28;;;;;;;3.75;2.58;;;11.60;71.40;;;;;;5030814;28;20033;-64
2021/05/05 02:19:56;;;;;;;3.20;2.45;;;11.60;71.10;;;;;;5033411;28;20115;-64
2021/05/05 02:22:26;;;;;;;2.50;2.30;;;11.60;71.80;;;;;;5032733;28;20040;-64
2021/05/05 02:24:59;;;;;;;3.00;2.80;;;11.60;72.90;;;;;;5032918;28;20029;-63
2021/05/05 02:27:30;;;;;;;4.15;2.97;;;11.60;72.60;;;;;;5033361;28;20033;-64
2021/05/05 02:29:58;;;;;;;6.28;2.70;;;11.60;72.80;;;;;;5035550;28;20041;-64
2021/05/05 02:32:24;;;;;;;3.75;2.90;;;11.60;72.50;;;;;;5032927;28;20088;-64
2021/05/05 02:34:52;;;;;;;3.42;2.70;;;11.50;73.50;;;;;;5033650;28;20116;-64
2021/05/05 02:37:25;;;;;;;1.60;1.50;;;11.50;73.30;;;;;;5033755;28;20048;-65
2021/05/05 02:39:58;;;;;;;1.30;1.20;;;11.50;73.90;;;;;;5033302;28;20038;-64
2021/05/05 02:42:29;;;;;;;0.55;0.55;;;11.40;73.30;;;;;;5032250;28;20033;-63
2021/05/05 02:44:54;;;;;;;0.50;0.43;;;11.30;73.20;;;;;;5035276;28;20116;-63
2021/05/05 02:47:24;;;;;;;0.90;0.30;;;11.20;72.80;;;;;;5031184;28;20184;-64
2021/05/05 02:49:54;;;;;;;0.30;0.20;;;11.10;72.10;;;;;;5033371;28;20037;-64
2021/05/05 02:52:27;;;;;;;1.27;0.10;;;11.00;72.00;;;;;;5034100;28;20029;-64
2021/05/05 02:54:55;;;;;;;0.20;0.10;;;10.80;71.90;;;;;;5030017;28;20124;-64
2021/05/05 02:57:25;;;;;;;0.20;0.00;;;10.70;72.30;;;;;;5032580;28;20460;-63
2021/05/05 02:59:55;;;;;;;0.38;0.17;;;10.50;71.60;;;;;;5030406;28;20408;-64
2021/05/05 03:02:26;;;;;;;0.45;0.10;;;10.40;72.20;;;;;;5031426;28;20069;-64
2021/05/05 03:04:54;;;;;;;0.10;0.10;;;10.40;72.60;;;;;;5033368;28;20462;-64
2021/05/05 03:07:23;;;;;;;0.20;0.00;;;10.30;72.70;;;;;;5031781;28;20037;-64
2021/05/05 03:09:49;;;;;;;0.52;0.10;;;10.20;72.50;;;;;;5029567;28;20090;-64
2021/05/05 03:12:14;;;;;;;0.28;0.10;;;10.10;72.50;;;;;;5029042;28;20030;-64
2021/05/05 03:14:42;;;;;;;0.00;0.00;;;10.00;72.50;;;;;;5038085;28;20036;-64
2021/05/05 03:17:12;;;;;;;1.30;0.13;;;9.90;72.80;;;;;;5035454;28;20033;-64
2021/05/05 03:19:43;;;;;;;0.15;0.10;;;9.90;74.20;;;;;;5035723;28;20029;-64
2021/05/05 03:22:16;;;;;;;0.10;0.10;;;9.90;73.50;;;;;;5034012;28;20032;-63
2021/05/05 03:24:44;;;;;;;0.20;0.10;;;9.80;73.40;;;;;;5033421;28;20040;-64
2021/05/05 03:27:09;;;;;;;0.55;0.10;;;9.80;73.50;;;;;;5033787;28;20497;-65
2021/05/05 03:29:40;;;;;;;0.40;0.10;;;9.80;73.40;;;;;;5033897;28;20072;-63
2021/05/05 03:32:08;;;;;;;0.55;0.52;;;9.70;73.70;;;;;;5033842;28;20425;-64
2021/05/05 03:34:36;;;;;;;3.83;2.60;;;9.60;73.90;;;;;;5032374;28;20033;-63
2021/05/05 03:37:02;;;;;;;2.28;1.70;;;9.50;73.80;;;;;;5031149;28;20567;-63
2021/05/05 03:39:30;;;;;;;2.88;2.17;;;9.40;74.40;;;;;;5033795;28;20041;-63
2021/05/05 03:42:03;;;;;;;0.52;0.50;;;9.30;74.00;;;;;;5035967;28;20504;-63
2021/05/05 03:44:33;;;;;;;0.43;0.30;;;9.20;74.50;;;;;;5033493;28;20116;-63
2021/05/05 03:47:02;;;;;;;0.43;0.20;;;9.20;74.30;;;;;;5031874;28;20155;-64
2021/05/05 03:49:29;;;;;;;0.40;0.20;;;9.10;74.50;;;;;;5034148;28;20116;-64
2021/05/05 03:51:59;;;;;;;0.28;0.10;;;9.00;74.40;;;;;;5032076;28;20029;-63
2021/05/05 03:54:30;;;;;;;0.20;0.10;;;8.90;74.80;;;;;;5036664;28;20057;-64
2021/05/05 03:57:03;;;;;;;0.25;0.05;;;8.90;74.90;;;;;;5031426;28;20112;-64
2021/05/05 03:59:33;;;;;;;0.20;0.10;;;8.80;75.10;;;;;;5031254;28;20041;-64
2021/05/05 04:02:03;;;;;;;0.05;0.05;;;8.70;75.30;;;;;;5030241;28;20045;-64
2021/05/05 04:04:31;;;;;;;0.32;0.10;;;8.80;75.50;;;;;;5029227;28;20025;-64
2021/05/05 04:07:02;;;;;;;0.00;0.00;;;8.70;75.80;;;;;;5030274;28;20045;-65
2021/05/05 04:09:35;;;;;;;0.22;0.00;;;8.70;75.50;;;;;;5031020;28;20045;-65
2021/05/05 04:12:04;;;;;;;0.52;0.00;;;8.60;76.00;;;;;;5034937;28;20029;-62
2021/05/05 04:14:36;;;;;;;0.65;0.00;;;8.60;75.70;;;;;;5037889;28;20034;-63
2021/05/05 04:17:05;;;;;;;0.15;0.15;;;8.60;75.90;;;;;;5034196;28;20044;-65
2021/05/05 04:19:33;;;;;;;0.10;0.10;;;8.60;76.10;;;;;;5037267;28;20057;-64
2021/05/05 04:22:02;;;;;;;1.45;0.00;;;8.60;75.80;;;;;;5033370;28;20548;-64
2021/05/05 04:24:29;;;;;;;0.15;0.08;;;8.60;76.10;;;;;;5036132;28;20040;-63
2021/05/05 04:26:59;;;;;;;0.20;0.10;;;8.60;75.80;;;;;;5029929;28;20037;-64
2021/05/05 04:29:25;;;;;;;0.30;0.10;;;8.60;76.00;;;;;;5032125;28;20033;-64
2021/05/05 04:31:54;;;;;;;0.10;0.10;;;8.60;75.90;;;;;;5038195;28;20021;-65
2021/05/05 04:34:26;;;;;;;0.10;0.00;;;8.50;75.90;;;;;;5037794;28;20403;-64
2021/05/05 04:36:55;;;;;;;0.30;0.20;;;8.50;75.90;;;;;;5037465;28;20057;-64
2021/05/05 04:39:21;;;;;;;0.52;0.10;;;8.50;75.80;;;;;;5037043;28;20029;-66
2021/05/05 04:41:49;;;;;;;0.10;0.10;;;8.50;75.90;;;;;;5036654;28;20041;-64
2021/05/05 04:44:19;;;;;;;0.40;0.10;;;8.50;76.00;;;;;;5037912;28;20041;-64
2021/05/05 04:46:50;;;;;;;0.60;0.30;;;8.50;76.00;;;;;;5037886;28;20564;-65
2021/05/05 04:49:20;;;;;;;0.73;0.20;;;8.50;76.00;;;;;;5045045;28;20049;-63
2021/05/05 04:51:46;;;;;;;0.73;0.30;;;8.50;76.50;;;;;;5035626;28;20029;-64
2021/05/05 04:54:11;;;;;;;0.63;0.20;;;8.40;76.10;;;;;;5037669;28;20558;-64
2021/05/05 04:56:39;;;;;;;1.48;0.30;;;8.40;76.20;;;;;;5036694;28;20036;-63
2021/05/05 04:59:09;;;;;;;3.10;0.22;;;8.40;76.20;;;;;;5037530;28;20041;-64
2021/05/05 05:01:42;;;;;;;1.80;0.25;;;8.40;76.60;;;;;;5035888;28;20033;-64
2021/05/05 05:04:10;;;;;;;2.10;0.60;;;8.40;76.90;;;;;;5039007;28;20036;-63
2021/05/05 05:06:38;;;;;;;2.38;0.80;;;8.40;76.50;;;;;;5037864;28;20030;-63
2021/05/05 05:09:07;;;;;;;0.95;0.35;;;8.40;76.70;;;;;;5037833;28;20072;-64
2021/05/05 05:11:37;;;;;;;1.40;0.52;;;8.40;76.80;;;;;;5033929;28;20021;-65
2021/05/05 05:14:03;;;;;;;0.40;0.25;;;8.40;76.90;;;;;;5034804;28;20063;-63
2021/05/05 05:16:31;;;;;;;1.05;0.32;;;8.40;76.60;;;;;;5036462;28;20031;-64
2021/05/05 05:19:04;;;;;;;1.85;0.30;;;8.30;76.40;;;;;;5038551;28;20492;-64
2021/05/05 05:21:32;;;;;;;0.30;0.20;;;8.30;76.80;;;;;;5037302;28;20029;-64
2021/05/05 05:23:57;;;;;;;0.68;0.40;;;8.30;76.50;;;;;;5039641;28;20036;-65
2021/05/05 05:26:30;;;;;;;1.70;0.60;;;8.30;76.40;;;;;;5033639;28;20030;-63
2021/05/05 05:29:00;;;;;;;0.93;0.47;;;8.30;76.70;;;;;;5037734;28;20493;-64
2021/05/05 05:31:30;;;;;;;0.70;0.38;;;8.30;76.80;;;;;;5035717;28;20033;-62
2021/05/05 05:34:00;;;;;;;1.30;0.50;;;8.30;76.80;;;;;;5037668;28;20025;-64
2021/05/05 05:36:28;;;;;;;0.68;0.50;;;8.30;76.80;;;;;;5036845;28;20033;-63
2021/05/05 05:38:54;;;;;;;0.82;0.60;;;8.30;76.70;;;;;;5037773;28;20033;-63
2021/05/05 05:41:22;;;;;;;1.60;0.60;;;8.40;77.00;;;;;;5033331;28;20037;-64
2021/05/05 05:43:49;;;;;;;0.77;0.57;;;8.40;76.90;;;;;;5037192;28;20037;-63
2021/05/05 05:46:15;;;;;;;1.05;0.70;;;8.40;76.90;;;;;;5036086;28;20361;-64
2021/05/05 05:48:45;;;;;;;0.70;0.50;;;8.50;77.00;;;;;;5035438;28;21486;-64
2021/05/05 05:51:15;;;;;;;0.75;0.73;;;8.50;77.10;;;;;;5036004;28;20053;-65
2021/05/05 05:53:43;;;;;;;1.33;0.60;;;8.50;76.60;;;;;;5035814;28;20481;-65
2021/05/05 05:56:16;;;;;;;2.95;0.80;;;8.60;76.90;;;;;;5038235;28;20032;-65
2021/05/05 05:58:46;;;;;;;3.40;0.50;;;8.70;76.90;;;;;;5035507;28;20072;-65
2021/05/05 06:01:16;;;;;;;0.90;0.40;;;8.70;77.00;;;;;;5036497;28;20028;-64
2021/05/05 06:03:42;;;;;;;0.70;0.60;;;8.70;76.60;;;;;;5036321;28;20112;-64
2021/05/05 06:06:14;;;;;;;2.28;1.00;;;8.80;76.50;;;;;;5037099;28;20572;-64
2021/05/05 06:08:44;;;;;;;0.80;0.50;;;8.80;76.40;;;;;;5035632;28;20413;-64
2021/05/05 06:11:12;;;;;;;1.77;1.48;;;8.90;76.30;;;;;;5032146;28;20569;-64
2021/05/05 06:13:40;;;;;;;1.38;0.30;;;8.80;76.00;;;;;;5037055;28;20036;-64
2021/05/05 06:16:10;;;;;;;0.32;0.30;;;8.90;76.00;;;;;;5037287;28;20033;-65
2021/05/05 06:18:38;;;;;;;0.40;0.40;;;8.90;75.80;;;;;;5037719;28;20397;-63
2021/05/05 06:21:09;;;;;;;1.02;0.38;;;8.90;75.40;;;;;;5034565;28;20037;-64
2021/05/05 06:23:36;;;;;;;0.38;0.25;;;8.90;75.60;;;;;;5037921;28;20037;-65
2021/05/05 06:26:07;;;;;;;0.52;0.40;;;8.90;75.40;;;;;;5035648;28;20080;-65
2021/05/05 06:28:32;;;;;;;0.20;0.20;;;8.90;75.10;;;;;;5036304;28;20033;-64
2021/05/05 06:31:00;;;;;;;0.75;0.17;;;8.90;75.20;;;;;;5035528;28;20536;-65
2021/05/05 06:33:29;;;;;;;0.20;0.10;;;8.90;75.30;;;;;;5037425;28;20033;-64
2021/05/05 06:35:59;;;;;;;0.68;0.50;;;8.90;75.20;;;;;;5037212;28;20029;-64
2021/05/05 06:38:25;;;;;;;1.33;0.77;;;9.00;75.40;;;;;;5035403;28;20139;-64
2021/05/05 06:40:53;;;;;;;0.50;0.50;;;9.00;75.60;;;;;;5035322;28;20033;-65
2021/05/05 06:43:21;;;;;;;0.50;0.30;;;9.00;75.50;;;;;;5034591;28;20034;-65
2021/05/05 06:45:51;;;;;;;1.13;0.30;;;9.10;75.30;;;;;;5039438;28;20022;-65
2021/05/05 06:48:19;;;;;;;0.25;0.25;;;9.10;74.90;;;;;;5039445;28;20041;-64
2021/05/05 06:50:50;;;;;;;0.22;0.10;;;9.10;74.70;;;;;;5039559;28;20420;-65
2021/05/05 06:53:21;;;;;;;0.20;0.10;;;9.10;74.60;;;;;;5039884;28;20034;-64
2021/05/05 06:55:51;;;;;;;0.10;0.10;;;9.10;74.60;;;;;;5037688;28;20033;-64
2021/05/05 06:58:18;;;;;;;0.32;0.20;;;9.20;74.40;;;;;;5036250;28;20037;-66
2021/05/05 07:00:49;;;;;;;0.10;0.10;;;9.10;74.40;;;;;;5038816;28;20104;-64
2021/05/05 07:03:16;;;;;;;0.15;0.10;;;9.20;74.20;;;;;;5028123;28;20030;-65
2021/05/05 07:05:42;;;;;;;0.75;0.22;;;9.10;74.20;;;;;;5038833;28;20412;-64
2021/05/05 07:08:12;;;;;;;0.10;0.10;;;9.20;74.60;;;;;;5039393;28;20523;-65
2021/05/05 07:10:45;;;;;;;0.10;0.10;;;9.20;74.30;;;;;;5036020;28;20025;-65
2021/05/05 07:13:13;;;;;;;0.10;0.10;;;9.20;74.20;;;;;;5038152;28;20060;-65
2021/05/05 07:15:40;;;;;;;0.38;0.20;;;9.20;74.00;;;;;;5038810;28;20029;-64
2021/05/05 07:18:08;;;;;;;0.50;0.28;;;9.20;74.00;;;;;;5036301;28;20033;-65
2021/05/05 07:20:38;;;;;;;0.82;0.30;;;9.30;74.00;;;;;;5038555;28;20029;-64
2021/05/05 07:23:09;;;;;;;0.68;0.40;;;9.30;73.70;;;;;;5038988;28;20033;-65
2021/05/05 07:25:41;;;;;;;0.17;0.10;;;9.30;73.50;;;;;;5036087;28;20033;-64
2021/05/05 07:28:09;;;;;;;0.52;0.10;;;9.40;73.50;;;;;;5038380;28;20033;-66
2021/05/05 07:30:42;;;;;;;0.38;0.10;;;9.40;73.20;;;;;;5038972;28;20485;-63
2021/05/05 07:33:10;;;;;;;0.30;0.30;;;9.40;73.00;;;;;;5037895;28;20033;-64
2021/05/05 07:35:40;;;;;;;0.10;0.10;;;9.40;73.00;;;;;;5038325;28;20183;-65
2021/05/05 07:48:35;;;;;;;0.40;0.30;;;9.50;73.00;;;;;;5038758;28;20072;-64
2021/05/05 07:51:03;;;;;;;0.70;0.20;;;9.50;72.70;;;;;;5038561;28;20049;-65
2021/05/05 07:53:33;;;;;;;0.47;0.30;;;9.50;72.60;;;;;;5037391;28;20076;-64
2021/05/05 07:56:04;;;;;;;0.15;0.15;;;9.50;73.20;;;;;;5036175;28;20377;-65
2021/05/05 07:58:32;;;;;;;0.28;0.20;;;9.50;72.40;;;;;;5039428;28;20037;-64
2021/05/05 08:01:02;;;;;;;0.40;0.20;;;9.60;72.50;;;;;;5037158;28;20041;-65
2021/05/05 08:03:30;;;;;;;0.30;0.20;;;9.60;72.60;;;;;;5038850;28;20069;-64
2021/05/05 08:05:58;;;;;;;0.93;0.50;;;9.60;72.50;;;;;;5038389;28;20304;-64
2021/05/05 08:08:26;;;;;;;0.57;0.50;;;9.60;72.40;;;;;;5038181;28;20037;-64
2021/05/05 08:10:55;;;;;;;1.00;0.47;;;9.60;72.30;;;;;;5039229;28;20041;-64
2021/05/05 08:13:20;;;;;;;2.40;0.63;;;9.60;72.10;;;;;;5036449;28;20113;-64
2021/05/05 08:15:46;;;;;;;2.17;1.00;;;9.60;71.30;;;;;;5037241;28;20116;-64
2021/05/05 08:18:14;;;;;;;3.88;0.90;;;9.60;69.30;;;;;;5037083;28;20038;-64
2021/05/05 08:20:42;;;;;;;2.28;1.08;;;9.50;68.60;;;;;;5038825;28;20538;-64
2021/05/05 08:23:16;;;;;;;5.70;1.48;;;9.50;67.90;;;;;;5038738;28;20030;-64
2021/05/05 08:25:47;;;;;;;5.55;1.58;;;9.40;67.50;;;;;;5036330;28;20036;-64
2021/05/05 08:28:17;;;;;;;8.27;1.58;;;9.40;67.60;;;;;;5038164;28;20059;-65
2021/05/05 08:30:46;;;;;;;4.22;1.17;;;9.40;66.70;;;;;;5037431;28;20412;-64
2021/05/05 08:33:16;;;;;;;5.72;1.50;;;9.30;67.00;;;;;;5038186;28;20035;-65
2021/05/05 08:35:49;;;;;;;5.15;1.45;;;9.30;66.70;;;;;;5038338;28;20120;-64
2021/05/05 08:38:22;;;;;;;4.30;1.50;;;9.20;66.30;;;;;;5038621;28;20112;-65
2021/05/05 08:40:48;;;;;;;4.38;1.20;;;9.20;67.10;;;;;;5037156;28;20365;-64
2021/05/05 08:43:21;;;;;;;7.47;1.40;;;9.30;66.40;;;;;;5035647;28;20041;-65
2021/05/05 08:45:55;;;;;;;4.80;1.42;;;9.20;66.30;;;;;;5036746;28;20034;-64
2021/05/05 08:48:23;;;;;;;4.57;1.17;;;9.20;66.60;;;;;;5038128;28;20033;-65
2021/05/05 08:50:53;;;;;;;5.53;1.42;;;9.20;66.70;;;;;;5038413;28;20124;-65
2021/05/05 08:53:19;;;;;;;4.88;1.20;;;9.20;66.70;;;;;;5034735;28;20029;-65
2021/05/05 08:55:50;;;;;;;3.90;1.33;;;9.20;66.30;;;;;;5036099;28;20033;-65
2021/05/05 08:58:20;;;;;;;5.53;1.50;;;9.20;66.60;;;;;;5035893;28;20041;-65
2021/05/05 09:00:50;;;;;;;3.88;1.17;;;9.20;65.90;;;;;;5035645;28;20057;-64
2021/05/05 09:03:18;;;;;;;4.85;1.38;;;9.20;65.20;;;;;;5036490;28;20045;-63
2021/05/05 09:05:54;;;;;;;2.75;1.23;;;9.20;64.50;;;;;;5038243;28;20045;-64
2021/05/05 09:08:22;;;;;;;4.55;1.17;;;9.10;64.70;;;;;;5036857;28;20041;-64
2021/05/05 09:11:02;;;;;;;3.95;1.25;;;9.20;65.20;;;;;;5033982;28;20037;-64
2021/05/05 09:13:52;;;;;;;4.70;1.20;;;9.20;65.40;;;;;;5036805;28;20395;-65
2021/05/05 09:16:29;;;;;;;3.83;1.17;;;9.20;64.80;;;;;;5038218;28;20048;-64
2021/05/05 09:18:59;;;;;;;3.15;1.00;;;9.20;63.90;;;;;;5037240;28;20421;-65
2021/05/05 09:21:25;;;;;;;4.03;1.30;;;9.20;64.10;;;;;;5037463;28;20030;-60
2021/05/05 09:24:13;;;;;;;4.28;1.10;;;9.30;64.20;;;;;;5038156;28;20036;-65
2021/05/05 09:26:41;;;;;;;4.60;1.17;;;9.30;63.80;;;;;;5045756;28;20068;-65
2021/05/05 09:29:06;;;;;;;3.20;1.08;;;9.40;63.80;;;;;;5036356;28;20037;-64
2021/05/05 09:31:34;;;;;;;3.88;1.30;;;9.40;64.00;;;;;;5036234;28;20098;-65
2021/05/05 09:34:01;;;;;;;3.78;1.23;;;9.50;64.00;;;;;;5034448;28;20045;-62
2021/05/05 09:36:34;;;;;;;1.98;1.10;;;9.50;63.10;;;;;;5037397;28;20040;-64
2021/05/05 09:39:06;;;;;;;3.78;1.10;;;9.60;63.10;;;;;;5036249;28;20036;-65
2021/05/05 09:41:36;;;;;;;5.53;1.20;;;9.70;62.50;;;;;;5036529;28;20059;-65
2021/05/05 09:44:06;;;;;;;2.20;1.20;;;9.70;63.30;;;;;;5032063;28;20163;-65
2021/05/05 09:46:47;;;;;;;3.78;1.23;;;9.80;63.70;;;;;;5036860;28;20021;-65
2021/05/05 09:49:31;;;;;;;1.92;1.20;;;9.90;61.80;;;;;;5034707;28;20029;-65
2021/05/05 09:52:05;;;;;;;1.83;1.00;;;10.00;61.00;;;;;;5037781;28;20032;-64
2021/05/05 09:54:38;;;;;;;8.70;1.35;;;10.10;61.30;;;;;;5035686;28;20025;-64
2021/05/05 09:57:21;;;;;;;2.63;1.17;;;10.20;59.70;;;;;;5036370;28;20042;-65
2021/05/05 10:00:16;;;;;;;6.43;1.30;;;10.20;59.90;;;;;;5043021;28;20643;-64
2021/05/05 10:02:56;;;;;;;6.10;1.20;;;10.40;59.30;;;;;;5049566;28;20047;-65
2021/05/05 10:05:31;;;;;;;9.38;1.17;;;10.50;57.60;;;;;;5035213;28;20071;-66
2021/05/05 10:08:03;;;;;;;4.68;0.80;;;10.60;57.90;;;;;;5037302;28;20033;-66
2021/05/05 10:10:43;;;;;;;1.25;0.80;;;10.60;58.00;;;;;;5032590;28;20099;-64
2021/05/05 10:13:12;;;;;;;2.92;1.15;;;10.70;57.60;;;;;;5035760;28;20075;-65
2021/05/05 10:15:41;;;;;;;2.40;0.90;;;10.80;57.80;;;;;;5036725;28;20033;-65
2021/05/05 10:18:15;;;;;;;5.72;1.25;;;10.80;57.20;;;;;;5035770;28;20034;-65
2021/05/05 10:20:47;;;;;;;3.92;0.90;;;10.90;55.40;;;;;;5034259;28;20041;-65
2021/05/05 10:23:17;;;;;;;3.60;1.20;;;10.90;56.00;;;;;;5035416;28;20432;-65
2021/05/05 10:25:48;;;;;;;4.97;1.10;;;10.90;55.70;;;;;;5036499;28;20070;-65
2021/05/05 10:28:16;;;;;;;3.67;0.98;;;11.00;56.20;;;;;;5038026;28;20034;-64
2021/05/05 10:30:43;;;;;;;2.53;1.17;;;11.00;56.80;;;;;;5034140;28;20040;-65
2021/05/05 10:33:19;;;;;;;2.80;1.05;;;11.10;56.80;;;;;;5036003;28;20389;-65
2021/05/05 10:35:51;;;;;;;3.20;1.00;;;11.30;56.40;;;;;;5036164;28;20029;-65
2021/05/05 10:38:38;;;;;;;3.35;1.10;;;11.40;55.90;;;;;;5035806;28;20033;-65
2021/05/05 10:41:14;;;;;;;6.78;1.00;;;11.60;51.10;;;;;;5035574;28;20079;-64
2021/05/05 10:43:51;;;;;;;2.58;1.13;;;11.70;51.80;;;;;;5032682;28;20033;-64
2021/05/05 10:46:50;;;;;;;1.92;0.90;;;11.80;51.40;;;;;;5036199;28;20038;-65
2021/05/05 10:49:21;;;;;;;2.28;1.00;;;11.90;50.00;;;;;;5021812;28;20045;-65
2021/05/05 10:51:48;;;;;;;2.78;0.90;;;12.00;52.00;;;;;;5035832;28;20061;-63
2021/05/05 10:54:52;;;;;;;2.25;0.80;;;12.00;50.20;;;;;;5032470;28;20508;-65
2021/05/05 10:57:22;;;;;;;1.40;0.75;;;12.10;49.90;;;;;;5036184;28;20128;-64
2021/05/05 11:00:11;;;;;;;2.75;0.95;;;12.20;50.70;;;;;;5037200;28;20103;-65
2021/05/05 11:02:48;;;;;;;1.95;0.73;;;12.20;46.80;;;;;;5034467;28;20033;-64
2021/05/05 11:05:20;;;;;;;2.78;1.00;;;12.20;46.80;;;;;;5032694;28;20116;-65
2021/05/05 11:07:57;;;;;;;2.70;0.80;;;12.30;49.80;;;;;;5035778;28;20909;-65
2021/05/05 11:10:40;;;;;;;2.88;0.90;;;12.30;48.30;;;;;;5030290;28;20147;-64
2021/05/05 11:13:18;;;;;;;4.80;1.10;;;12.30;48.60;;;;;;5035016;28;20104;-65
2021/05/05 11:15:48;;;;;;;3.95;1.10;;;12.20;48.90;;;;;;5035672;28;20036;-65
2021/05/05 11:18:35;;;;;;;3.75;1.15;;;12.10;49.60;;;;;;5036198;28;20053;-65
2021/05/05 11:21:32;;;;;;;4.53;1.00;;;12.10;49.80;;;;;;5033986;28;20067;-65
2021/05/05 11:24:02;;;;;;;2.88;0.82;;;12.00;49.90;;;;;;5036450;28;22087;-64
2021/05/05 11:26:32;;;;;;;3.10;0.90;;;11.90;50.90;;;;;;5031665;28;20056;-64
2021/05/05 11:29:00;;;;;;;4.10;1.33;;;11.90;51.40;;;;;;5036476;28;20079;-64
2021/05/05 11:31:50;;;;;;;6.00;1.20;;;11.90;51.20;;;;;;5037058;28;20029;-62
2021/05/05 11:34:29;;;;;;;7.43;1.10;;;12.00;50.90;;;;;;5038607;28;20036;-65
2021/05/05 11:37:05;;;;;;;4.35;1.00;;;12.00;50.50;;;;;;5037406;28;20037;-65
2021/05/05 11:39:46;;;;;;;2.35;1.00;;;12.10;50.90;;;;;;5038497;28;20094;-65
2021/05/05 11:42:26;;;;;;;2.30;0.98;;;12.10;51.00;;;;;;5046508;28;20117;-65
2021/05/05 11:44:56;;;;;;;5.85;0.88;;;12.10;49.50;;;;;;5035201;28;20374;-65
2021/05/05 11:47:39;;;;;;;1.25;1.00;;;12.20;49.70;;;;;;5039896;28;20492;-64
2021/05/05 11:50:10;;;;;;;5.72;1.45;;;12.20;49.90;;;;;;5037971;28;21458;-64
2021/05/05 11:52:38;;;;;;;2.78;1.40;;;12.30;50.80;;;;;;5035108;28;20036;-65
2021/05/05 11:55:09;;;;;;;1.33;0.70;;;12.40;51.40;;;;;;5038461;28;20040;-65
2021/05/05 11:57:43;;;;;;;2.95;0.80;;;12.50;48.30;;;;;;5039623;28;20033;-64
2021/05/05 12:00:09;;;;;;;7.15;1.10;;;12.60;49.50;;;;;;5036926;28;20049;-65
2021/05/05 12:02:48;;;;;;;2.47;1.20;;;12.60;47.20;;;;;;5036035;28;20408;-64
2021/05/05 12:05:47;;;;;;;5.97;1.85;;;12.70;47.30;;;;;;5038083;28;20516;-64
2021/05/05 12:08:20;;;;;;;3.05;1.00;;;12.80;48.90;;;;;;5038508;28;20505;-65
2021/05/05 12:10:51;;;;;;;2.20;0.93;;;12.90;49.20;;;;;;5038855;28;20040;-65
2021/05/05 12:13:22;;;;;;;2.20;0.90;;;13.00;49.30;;;;;;5038727;28;20038;-65
2021/05/05 12:16:06;;;;;;;3.15;0.88;;;13.20;48.50;;;;;;5038749;28;20455;-64
2021/05/05 12:18:35;;;;;;;2.08;0.82;;;13.20;46.30;;;;;;5035883;28;20025;-64
2021/05/05 12:21:11;;;;;;;3.05;0.88;;;13.30;47.00;;;;;;5038634;28;20033;-65
2021/05/05 12:23:43;;;;;;;3.00;0.90;;;13.30;45.80;;;;;;5036442;28;20424;-64
2021/05/05 12:26:25;;;;;;;2.28;0.77;;;13.30;44.80;;;;;;5037262;28;20629;-65
2021/05/05 12:29:02;;;;;;;3.45;0.60;;;13.30;44.60;;;;;;5036296;28;20037;-63
2021/05/05 12:31:37;;;;;;;1.60;0.73;;;13.30;44.00;;;;;;5038025;28;20041;-65
2021/05/05 12:34:08;;;;;;;1.52;0.80;;;13.30;42.90;;;;;;5036255;28;20074;-64
2021/05/05 12:36:41;;;;;;;1.30;0.60;;;13.30;44.30;;;;;;5038332;28;20261;-63
2021/05/05 12:39:16;;;;;;;1.80;0.70;;;13.40;45.00;;;;;;5036672;28;20520;-65
2021/05/05 12:41:45;;;;;;;5.90;0.88;;;13.40;43.50;;;;;;5039027;28;20112;-64
2021/05/05 12:44:15;;;;;;;0.93;0.70;;;13.50;44.30;;;;;;5041964;28;20038;-64
2021/05/05 12:46:58;;;;;;;2.88;1.00;;;13.50;43.00;;;;;;5037352;28;20044;-64
2021/05/05 12:49:33;;;;;;;2.40;0.88;;;13.60;44.00;;;;;;5037652;28;20040;-65
2021/05/05 12:52:02;;;;;;;2.00;0.90;;;13.60;42.50;;;;;;5037302;28;20112;-64
2021/05/05 12:54:33;;;;;;;1.58;1.00;;;13.60;43.50;;;;;;5036358;28;20022;-64
2021/05/05 12:57:14;;;;;;;2.30;0.90;;;13.60;43.60;;;;;;5037611;28;20068;-65
2021/05/05 12:59:44;;;;;;;2.45;0.90;;;13.50;41.40;;;;;;5038028;28;20121;-65
2021/05/05 13:02:16;;;;;;;2.38;0.90;;;13.50;44.60;;;;;;5032903;28;20049;-65
2021/05/05 13:04:46;;;;;;;1.35;0.60;;;13.40;46.90;;;;;;5035553;28;20127;-64
2021/05/05 13:07:36;;;;;;;2.03;0.65;;;13.30;47.90;;;;;;5038581;28;20034;-65
2021/05/05 13:10:17;;;;;;;1.10;0.60;;;13.10;47.60;;;;;;5035462;28;20116;-62
2021/05/05 13:12:47;;;;;;;1.20;0.40;;;12.90;48.50;;;;;;5036238;28;20026;-64
2021/05/05 13:33:01;;;;;;;2.80;0.70;;;12.10;50.60;;;;;;5025021;28;20059;-64
2021/05/05 13:35:34;;;;;;;1.17;0.43;;;12.10;50.50;;;;;;5036958;28;20033;-63
2021/05/05 13:38:10;;;;;;;2.00;0.70;;;12.20;49.70;;;;;;5036084;28;20120;-64
2021/05/05 13:40:49;;;;;;;2.05;0.75;;;12.20;49.70;;;;;;5033004;28;20842;-64